sensor_id;sensor_type;location;lat;lon;timestamp;P1;durP1;ratioP1;P2;durP2;ratioP2
66739;SDS011;53653;52.188;8.602;2023-07-30T00:01:05;11.40;;;6.23;;
66739;SDS011;53653;52.188;8.602;2023-07-30T00:03:31;11.80;;;6.20;;
66739;SDS011;53653;52.188;8.602;2023-07-30T00:05:56;11.57;;;6.47;;
66739;SDS011;53653;52.188;8.602;2023-07-30T00:08:22;13.70;;;7.33;;
66739;SDS011;53653;52.188;8.602;2023-07-30T00:10:48;13.07;;;6.63;;
66739;SDS011;53653;52.188;8.602;2023-07-30T00:13:14;14.10;;;7.10;;
66739;SDS011;53653;52.188;8.602;2023-07-30T00:15:39;11.37;;;6.60;;
66739;SDS011;53653;52.188;8.602;2023-07-30T00:18:05;11.32;;;6.53;;
66739;SDS011;53653;52.188;8.602;2023-07-30T00:20:31;14.17;;;6.33;;
66739;SDS011;53653;52.188;8.602;2023-07-30T00:22:56;10.88;;;6.47;;
66739;SDS011;53653;52.188;8.602;2023-07-30T00:25:22;13.90;;;6.63;;
66739;SDS011;53653;52.188;8.602;2023-07-30T00:27:47;14.47;;;7.13;;
66739;SDS011;53653;52.188;8.602;2023-07-30T00:30:13;10.43;;;5.72;;
66739;SDS011;53653;52.188;8.602;2023-07-30T00:32:38;14.37;;;7.57;;
66739;SDS011;53653;52.188;8.602;2023-07-30T00:35:08;14.23;;;7.88;;
66739;SDS011;53653;52.188;8.602;2023-07-30T00:37:34;14.13;;;7.40;;
66739;SDS011;53653;52.188;8.602;2023-07-30T00:39:59;14.07;;;6.93;;
66739;SDS011;53653;52.188;8.602;2023-07-30T00:42:26;14.77;;;7.70;;
66739;SDS011;53653;52.188;8.602;2023-07-30T00:44:51;15.60;;;7.47;;
66739;SDS011;53653;52.188;8.602;2023-07-30T00:47:16;13.20;;;8.00;;
66739;SDS011;53653;52.188;8.602;2023-07-30T00:49:42;14.63;;;8.10;;
66739;SDS011;53653;52.188;8.602;2023-07-30T00:52:08;15.90;;;8.20;;
66739;SDS011;53653;52.188;8.602;2023-07-30T00:54:34;13.70;;;8.10;;
66739;SDS011;53653;52.188;8.602;2023-07-30T00:56:59;15.43;;;8.20;;
66739;SDS011;53653;52.188;8.602;2023-07-30T00:59:26;15.90;;;8.70;;
66739;SDS011;53653;52.188;8.602;2023-07-30T01:01:51;14.97;;;7.90;;
66739;SDS011;53653;52.188;8.602;2023-07-30T01:04:18;13.85;;;7.97;;
66739;SDS011;53653;52.188;8.602;2023-07-30T01:06:44;13.07;;;7.65;;
66739;SDS011;53653;52.188;8.602;2023-07-30T01:09:10;16.57;;;7.73;;
66739;SDS011;53653;52.188;8.602;2023-07-30T01:11:36;11.65;;;6.57;;
66739;SDS011;53653;52.188;8.602;2023-07-30T01:14:03;14.13;;;7.00;;
66739;SDS011;53653;52.188;8.602;2023-07-30T01:16:30;13.60;;;6.82;;
66739;SDS011;53653;52.188;8.602;2023-07-30T01:18:56;13.37;;;6.67;;
66739;SDS011;53653;52.188;8.602;2023-07-30T01:21:24;12.82;;;6.22;;
66739;SDS011;53653;52.188;8.602;2023-07-30T01:23:50;12.13;;;6.55;;
66739;SDS011;53653;52.188;8.602;2023-07-30T01:26:25;14.53;;;6.20;;
66739;SDS011;53653;52.188;8.602;2023-07-30T01:28:56;13.95;;;6.20;;
66739;SDS011;53653;52.188;8.602;2023-07-30T01:31:24;11.52;;;5.88;;
66739;SDS011;53653;52.188;8.602;2023-07-30T01:33:52;15.50;;;6.38;;
66739;SDS011;53653;52.188;8.602;2023-07-30T01:36:21;10.83;;;5.90;;
66739;SDS011;53653;52.188;8.602;2023-07-30T01:38:47;12.73;;;5.75;;
66739;SDS011;53653;52.188;8.602;2023-07-30T01:41:14;13.85;;;5.55;;
66739;SDS011;53653;52.188;8.602;2023-07-30T01:43:40;12.63;;;5.73;;
66739;SDS011;53653;52.188;8.602;2023-07-30T01:46:05;11.47;;;6.13;;
66739;SDS011;53653;52.188;8.602;2023-07-30T01:48:31;12.93;;;5.40;;
66739;SDS011;53653;52.188;8.602;2023-07-30T01:50:56;10.40;;;5.72;;
66739;SDS011;53653;52.188;8.602;2023-07-30T01:53:21;13.90;;;5.43;;
66739;SDS011;53653;52.188;8.602;2023-07-30T01:55:47;12.30;;;5.70;;
66739;SDS011;53653;52.188;8.602;2023-07-30T01:58:12;14.30;;;6.03;;
66739;SDS011;53653;52.188;8.602;2023-07-30T02:00:39;14.32;;;5.35;;
66739;SDS011;53653;52.188;8.602;2023-07-30T02:03:05;15.85;;;5.82;;
66739;SDS011;53653;52.188;8.602;2023-07-30T02:05:30;15.07;;;5.43;;
66739;SDS011;53653;52.188;8.602;2023-07-30T02:07:56;17.77;;;5.45;;
66739;SDS011;53653;52.188;8.602;2023-07-30T02:10:23;14.27;;;5.82;;
66739;SDS011;53653;52.188;8.602;2023-07-30T02:12:50;9.63;;;5.13;;
66739;SDS011;53653;52.188;8.602;2023-07-30T02:15:15;11.55;;;5.88;;
66739;SDS011;53653;52.188;8.602;2023-07-30T02:17:41;13.93;;;5.70;;
66739;SDS011;53653;52.188;8.602;2023-07-30T02:20:07;14.57;;;5.70;;
66739;SDS011;53653;52.188;8.602;2023-07-30T02:22:33;13.53;;;5.30;;
66739;SDS011;53653;52.188;8.602;2023-07-30T02:24:59;12.88;;;5.53;;
66739;SDS011;53653;52.188;8.602;2023-07-30T02:27:25;12.85;;;5.80;;
66739;SDS011;53653;52.188;8.602;2023-07-30T02:29:50;11.40;;;5.40;;
66739;SDS011;53653;52.188;8.602;2023-07-30T02:32:15;13.07;;;5.53;;
66739;SDS011;53653;52.188;8.602;2023-07-30T02:34:41;14.35;;;5.95;;
66739;SDS011;53653;52.188;8.602;2023-07-30T02:37:07;14.20;;;5.40;;
66739;SDS011;53653;52.188;8.602;2023-07-30T02:39:32;13.70;;;5.40;;
66739;SDS011;53653;52.188;8.602;2023-07-30T02:41:57;16.02;;;5.93;;
66739;SDS011;53653;52.188;8.602;2023-07-30T02:44:23;11.87;;;5.40;;
66739;SDS011;53653;52.188;8.602;2023-07-30T02:46:48;13.77;;;5.80;;
66739;SDS011;53653;52.188;8.602;2023-07-30T02:49:14;11.17;;;5.63;;
66739;SDS011;53653;52.188;8.602;2023-07-30T02:51:39;12.53;;;5.90;;
66739;SDS011;53653;52.188;8.602;2023-07-30T02:54:05;13.50;;;5.37;;
66739;SDS011;53653;52.188;8.602;2023-07-30T02:56:32;11.85;;;5.88;;
66739;SDS011;53653;52.188;8.602;2023-07-30T02:58:58;12.65;;;5.47;;
66739;SDS011;53653;52.188;8.602;2023-07-30T03:01:24;14.27;;;5.87;;
66739;SDS011;53653;52.188;8.602;2023-07-30T03:03:50;11.98;;;5.53;;
66739;SDS011;53653;52.188;8.602;2023-07-30T03:06:15;12.90;;;5.37;;
66739;SDS011;53653;52.188;8.602;2023-07-30T03:08:42;12.37;;;5.23;;
66739;SDS011;53653;52.188;8.602;2023-07-30T03:11:08;14.52;;;5.70;;
66739;SDS011;53653;52.188;8.602;2023-07-30T03:13:34;12.35;;;5.05;;
66739;SDS011;53653;52.188;8.602;2023-07-30T03:15:59;10.73;;;5.10;;
66739;SDS011;53653;52.188;8.602;2023-07-30T03:18:25;12.10;;;4.85;;
66739;SDS011;53653;52.188;8.602;2023-07-30T03:20:50;15.37;;;5.73;;
66739;SDS011;53653;52.188;8.602;2023-07-30T03:23:16;12.80;;;5.20;;
66739;SDS011;53653;52.188;8.602;2023-07-30T03:25:41;14.10;;;5.93;;
66739;SDS011;53653;52.188;8.602;2023-07-30T03:28:07;12.43;;;5.23;;
66739;SDS011;53653;52.188;8.602;2023-07-30T03:30:33;12.57;;;5.68;;
66739;SDS011;53653;52.188;8.602;2023-07-30T03:32:59;15.00;;;6.07;;
66739;SDS011;53653;52.188;8.602;2023-07-30T03:35:24;14.97;;;6.20;;
66739;SDS011;53653;52.188;8.602;2023-07-30T03:37:49;17.47;;;7.63;;
66739;SDS011;53653;52.188;8.602;2023-07-30T03:40:16;16.85;;;7.40;;
66739;SDS011;53653;52.188;8.602;2023-07-30T03:42:41;16.30;;;7.37;;
66739;SDS011;53653;52.188;8.602;2023-07-30T03:45:07;18.25;;;8.07;;
66739;SDS011;53653;52.188;8.602;2023-07-30T03:47:33;16.77;;;8.27;;
66739;SDS011;53653;52.188;8.602;2023-07-30T03:49:58;17.45;;;8.57;;
66739;SDS011;53653;52.188;8.602;2023-07-30T03:52:24;17.73;;;8.27;;
66739;SDS011;53653;52.188;8.602;2023-07-30T03:54:50;18.38;;;8.48;;
66739;SDS011;53653;52.188;8.602;2023-07-30T03:57:16;18.52;;;8.30;;
66739;SDS011;53653;52.188;8.602;2023-07-30T03:59:41;17.30;;;7.87;;
66739;SDS011;53653;52.188;8.602;2023-07-30T04:02:07;18.00;;;7.90;;
66739;SDS011;53653;52.188;8.602;2023-07-30T04:04:32;18.30;;;7.67;;
66739;SDS011;53653;52.188;8.602;2023-07-30T04:06:58;16.15;;;6.97;;
66739;SDS011;53653;52.188;8.602;2023-07-30T04:09:24;18.20;;;6.37;;
66739;SDS011;53653;52.188;8.602;2023-07-30T04:11:49;14.87;;;6.10;;
66739;SDS011;53653;52.188;8.602;2023-07-30T04:14:15;15.67;;;5.63;;
66739;SDS011;53653;52.188;8.602;2023-07-30T04:16:40;15.07;;;5.83;;
66739;SDS011;53653;52.188;8.602;2023-07-30T04:19:08;11.88;;;4.50;;
66739;SDS011;53653;52.188;8.602;2023-07-30T04:21:33;12.43;;;4.53;;
66739;SDS011;53653;52.188;8.602;2023-07-30T04:23:59;14.95;;;4.95;;
66739;SDS011;53653;52.188;8.602;2023-07-30T04:26:25;13.30;;;4.57;;
66739;SDS011;53653;52.188;8.602;2023-07-30T04:28:50;12.30;;;3.80;;
66739;SDS011;53653;52.188;8.602;2023-07-30T04:31:16;11.83;;;3.67;;
66739;SDS011;53653;52.188;8.602;2023-07-30T04:33:42;14.25;;;3.47;;
66739;SDS011;53653;52.188;8.602;2023-07-30T04:36:07;10.73;;;3.70;;
66739;SDS011;53653;52.188;8.602;2023-07-30T04:38:33;11.57;;;3.78;;
66739;SDS011;53653;52.188;8.602;2023-07-30T04:40:59;10.03;;;3.30;;
66739;SDS011;53653;52.188;8.602;2023-07-30T04:43:24;13.63;;;3.70;;
66739;SDS011;53653;52.188;8.602;2023-07-30T04:45:54;9.83;;;3.40;;
66739;SDS011;53653;52.188;8.602;2023-07-30T04:48:19;8.70;;;3.13;;
66739;SDS011;53653;52.188;8.602;2023-07-30T04:50:45;8.13;;;3.27;;
66739;SDS011;53653;52.188;8.602;2023-07-30T04:53:10;8.87;;;3.50;;
66739;SDS011;53653;52.188;8.602;2023-07-30T04:55:36;8.52;;;3.13;;
66739;SDS011;53653;52.188;8.602;2023-07-30T04:58:01;9.20;;;3.03;;
66739;SDS011;53653;52.188;8.602;2023-07-30T05:00:28;9.90;;;3.38;;
66739;SDS011;53653;52.188;8.602;2023-07-30T05:02:54;8.97;;;3.10;;
66739;SDS011;53653;52.188;8.602;2023-07-30T05:05:19;9.82;;;2.72;;
66739;SDS011;53653;52.188;8.602;2023-07-30T05:07:45;9.23;;;3.03;;
66739;SDS011;53653;52.188;8.602;2023-07-30T05:10:10;9.17;;;3.30;;
66739;SDS011;53653;52.188;8.602;2023-07-30T05:12:36;9.33;;;3.00;;
66739;SDS011;53653;52.188;8.602;2023-07-30T05:15:02;12.73;;;3.30;;
66739;SDS011;53653;52.188;8.602;2023-07-30T05:17:28;11.68;;;2.75;;
66739;SDS011;53653;52.188;8.602;2023-07-30T05:19:54;10.45;;;2.90;;
66739;SDS011;53653;52.188;8.602;2023-07-30T05:22:19;11.40;;;3.43;;
66739;SDS011;53653;52.188;8.602;2023-07-30T05:24:45;10.87;;;2.80;;
66739;SDS011;53653;52.188;8.602;2023-07-30T05:27:10;11.00;;;3.00;;
66739;SDS011;53653;52.188;8.602;2023-07-30T05:29:36;13.35;;;2.60;;
66739;SDS011;53653;52.188;8.602;2023-07-30T05:32:01;11.57;;;3.03;;
66739;SDS011;53653;52.188;8.602;2023-07-30T05:34:27;8.07;;;2.43;;
66739;SDS011;53653;52.188;8.602;2023-07-30T05:36:52;9.68;;;2.67;;
66739;SDS011;53653;52.188;8.602;2023-07-30T05:39:18;9.77;;;3.40;;
66739;SDS011;53653;52.188;8.602;2023-07-30T05:41:43;9.30;;;2.73;;
66739;SDS011;53653;52.188;8.602;2023-07-30T05:44:09;11.33;;;2.73;;
66739;SDS011;53653;52.188;8.602;2023-07-30T05:46:34;7.70;;;2.65;;
66739;SDS011;53653;52.188;8.602;2023-07-30T05:48:59;11.57;;;3.33;;
66739;SDS011;53653;52.188;8.602;2023-07-30T05:51:25;7.97;;;2.67;;
66739;SDS011;53653;52.188;8.602;2023-07-30T05:53:50;11.73;;;3.00;;
66739;SDS011;53653;52.188;8.602;2023-07-30T05:56:16;14.20;;;2.87;;
66739;SDS011;53653;52.188;8.602;2023-07-30T05:58:43;8.43;;;2.85;;
66739;SDS011;53653;52.188;8.602;2023-07-30T06:01:09;13.77;;;3.00;;
66739;SDS011;53653;52.188;8.602;2023-07-30T06:03:36;11.63;;;3.30;;
66739;SDS011;53653;52.188;8.602;2023-07-30T06:06:02;11.98;;;3.30;;
66739;SDS011;53653;52.188;8.602;2023-07-30T06:08:28;12.27;;;3.17;;
66739;SDS011;53653;52.188;8.602;2023-07-30T06:10:54;11.15;;;2.70;;
66739;SDS011;53653;52.188;8.602;2023-07-30T06:13:20;11.35;;;3.40;;
66739;SDS011;53653;52.188;8.602;2023-07-30T06:15:46;14.23;;;3.57;;
66739;SDS011;53653;52.188;8.602;2023-07-30T06:18:12;13.07;;;3.22;;
66739;SDS011;53653;52.188;8.602;2023-07-30T06:20:37;11.00;;;3.37;;
66739;SDS011;53653;52.188;8.602;2023-07-30T06:23:02;13.77;;;3.03;;
66739;SDS011;53653;52.188;8.602;2023-07-30T06:25:29;9.48;;;3.25;;
66739;SDS011;53653;52.188;8.602;2023-07-30T06:27:55;12.10;;;3.22;;
66739;SDS011;53653;52.188;8.602;2023-07-30T06:30:23;12.77;;;3.55;;
66739;SDS011;53653;52.188;8.602;2023-07-30T06:32:49;12.50;;;3.63;;
66739;SDS011;53653;52.188;8.602;2023-07-30T06:35:15;12.90;;;3.77;;
66739;SDS011;53653;52.188;8.602;2023-07-30T06:37:41;11.88;;;4.30;;
66739;SDS011;53653;52.188;8.602;2023-07-30T06:40:06;12.70;;;4.80;;
66739;SDS011;53653;52.188;8.602;2023-07-30T06:42:32;18.77;;;5.90;;
66739;SDS011;53653;52.188;8.602;2023-07-30T06:44:58;15.95;;;6.05;;
66739;SDS011;53653;52.188;8.602;2023-07-30T06:47:24;14.33;;;7.20;;
66739;SDS011;53653;52.188;8.602;2023-07-30T06:49:50;16.42;;;6.85;;
66739;SDS011;53653;52.188;8.602;2023-07-30T06:52:15;17.13;;;6.73;;
66739;SDS011;53653;52.188;8.602;2023-07-30T06:54:41;15.77;;;6.43;;
66739;SDS011;53653;52.188;8.602;2023-07-30T06:57:06;17.92;;;7.72;;
66739;SDS011;53653;52.188;8.602;2023-07-30T06:59:33;18.07;;;7.07;;
66739;SDS011;53653;52.188;8.602;2023-07-30T07:01:59;18.15;;;7.25;;
66739;SDS011;53653;52.188;8.602;2023-07-30T07:04:24;22.30;;;7.70;;
66739;SDS011;53653;52.188;8.602;2023-07-30T07:06:50;15.60;;;6.70;;
66739;SDS011;53653;52.188;8.602;2023-07-30T07:09:15;17.17;;;8.00;;
66739;SDS011;53653;52.188;8.602;2023-07-30T07:11:41;17.57;;;7.03;;
66739;SDS011;53653;52.188;8.602;2023-07-30T07:14:06;19.13;;;7.80;;
66739;SDS011;53653;52.188;8.602;2023-07-30T07:16:32;14.87;;;6.97;;
66739;SDS011;53653;52.188;8.602;2023-07-30T07:18:57;20.03;;;7.80;;
66739;SDS011;53653;52.188;8.602;2023-07-30T07:21:22;17.00;;;7.03;;
66739;SDS011;53653;52.188;8.602;2023-07-30T07:23:48;16.93;;;8.03;;
66739;SDS011;53653;52.188;8.602;2023-07-30T07:26:13;21.37;;;7.40;;
66739;SDS011;53653;52.188;8.602;2023-07-30T07:28:39;14.93;;;6.97;;
66739;SDS011;53653;52.188;8.602;2023-07-30T07:31:04;18.27;;;7.75;;
66739;SDS011;53653;52.188;8.602;2023-07-30T07:33:30;16.73;;;7.40;;
66739;SDS011;53653;52.188;8.602;2023-07-30T07:36:08;18.52;;;8.10;;
66739;SDS011;53653;52.188;8.602;2023-07-30T07:38:34;17.95;;;7.75;;
66739;SDS011;53653;52.188;8.602;2023-07-30T07:41:00;18.17;;;8.80;;
66739;SDS011;53653;52.188;8.602;2023-07-30T07:43:26;19.38;;;8.95;;
66739;SDS011;53653;52.188;8.602;2023-07-30T07:45:53;19.80;;;9.43;;
66739;SDS011;53653;52.188;8.602;2023-07-30T07:48:19;21.93;;;10.40;;
66739;SDS011;53653;52.188;8.602;2023-07-30T07:50:45;17.80;;;9.43;;
66739;SDS011;53653;52.188;8.602;2023-07-30T07:53:11;19.73;;;10.15;;
66739;SDS011;53653;52.188;8.602;2023-07-30T07:55:37;19.90;;;9.80;;
66739;SDS011;53653;52.188;8.602;2023-07-30T07:58:02;22.42;;;11.35;;
66739;SDS011;53653;52.188;8.602;2023-07-30T08:00:28;21.90;;;11.40;;
66739;SDS011;53653;52.188;8.602;2023-07-30T08:02:53;20.90;;;11.37;;
66739;SDS011;53653;52.188;8.602;2023-07-30T08:05:19;23.33;;;12.05;;
66739;SDS011;53653;52.188;8.602;2023-07-30T08:07:48;20.67;;;9.83;;
66739;SDS011;53653;52.188;8.602;2023-07-30T08:10:13;25.65;;;12.10;;
66739;SDS011;53653;52.188;8.602;2023-07-30T08:12:39;21.30;;;11.85;;
66739;SDS011;53653;52.188;8.602;2023-07-30T08:15:05;24.87;;;12.77;;
66739;SDS011;53653;52.188;8.602;2023-07-30T08:17:31;31.08;;;13.75;;
66739;SDS011;53653;52.188;8.602;2023-07-30T08:19:57;26.53;;;12.57;;
66739;SDS011;53653;52.188;8.602;2023-07-30T08:22:22;23.25;;;12.60;;
66739;SDS011;53653;52.188;8.602;2023-07-30T08:24:48;23.17;;;12.30;;
66739;SDS011;53653;52.188;8.602;2023-07-30T08:27:14;27.25;;;12.65;;
66739;SDS011;53653;52.188;8.602;2023-07-30T08:29:39;23.93;;;11.80;;
66739;SDS011;53653;52.188;8.602;2023-07-30T08:32:06;22.00;;;10.63;;
66739;SDS011;53653;52.188;8.602;2023-07-30T08:34:31;22.67;;;12.27;;
66739;SDS011;53653;52.188;8.602;2023-07-30T08:36:57;21.57;;;11.73;;
66739;SDS011;53653;52.188;8.602;2023-07-30T08:39:23;18.67;;;11.27;;
66739;SDS011;53653;52.188;8.602;2023-07-30T08:41:48;26.10;;;11.20;;
66739;SDS011;53653;52.188;8.602;2023-07-30T08:44:14;21.92;;;11.00;;
66739;SDS011;53653;52.188;8.602;2023-07-30T08:46:40;19.87;;;9.57;;
66739;SDS011;53653;52.188;8.602;2023-07-30T08:49:05;25.70;;;10.57;;
66739;SDS011;53653;52.188;8.602;2023-07-30T08:51:31;18.23;;;9.80;;
66739;SDS011;53653;52.188;8.602;2023-07-30T08:54:01;25.20;;;9.68;;
66739;SDS011;53653;52.188;8.602;2023-07-30T08:56:27;22.42;;;8.77;;
66739;SDS011;53653;52.188;8.602;2023-07-30T08:58:54;23.35;;;9.50;;
66739;SDS011;53653;52.188;8.602;2023-07-30T09:01:25;19.30;;;8.57;;
66739;SDS011;53653;52.188;8.602;2023-07-30T09:03:58;20.98;;;9.75;;
66739;SDS011;53653;52.188;8.602;2023-07-30T09:06:27;22.90;;;9.65;;
66739;SDS011;53653;52.188;8.602;2023-07-30T09:08:53;23.83;;;10.60;;
66739;SDS011;53653;52.188;8.602;2023-07-30T09:11:19;21.77;;;10.03;;
66739;SDS011;53653;52.188;8.602;2023-07-30T09:13:45;25.10;;;10.48;;
66739;SDS011;53653;52.188;8.602;2023-07-30T09:16:12;25.45;;;10.55;;
66739;SDS011;53653;52.188;8.602;2023-07-30T09:18:43;22.20;;;10.97;;
66739;SDS011;53653;52.188;8.602;2023-07-30T09:21:10;25.33;;;11.18;;
66739;SDS011;53653;52.188;8.602;2023-07-30T09:23:44;27.40;;;10.63;;
66739;SDS011;53653;52.188;8.602;2023-07-30T09:26:12;26.08;;;12.10;;
66739;SDS011;53653;52.188;8.602;2023-07-30T09:28:42;21.73;;;9.73;;
66739;SDS011;53653;52.188;8.602;2023-07-30T09:31:08;25.80;;;10.70;;
66739;SDS011;53653;52.188;8.602;2023-07-30T09:33:35;21.98;;;9.88;;
66739;SDS011;53653;52.188;8.602;2023-07-30T09:36:06;24.20;;;10.32;;
66739;SDS011;53653;52.188;8.602;2023-07-30T09:38:38;25.88;;;9.00;;
66739;SDS011;53653;52.188;8.602;2023-07-30T09:41:04;22.25;;;8.52;;
66739;SDS011;53653;52.188;8.602;2023-07-30T09:43:33;24.73;;;9.60;;
66739;SDS011;53653;52.188;8.602;2023-07-30T09:46:05;27.58;;;10.25;;
66739;SDS011;53653;52.188;8.602;2023-07-30T09:48:32;27.23;;;8.80;;
66739;SDS011;53653;52.188;8.602;2023-07-30T09:50:59;19.50;;;8.43;;
66739;SDS011;53653;52.188;8.602;2023-07-30T09:53:27;21.60;;;8.50;;
66739;SDS011;53653;52.188;8.602;2023-07-30T09:55:55;25.50;;;8.13;;
66739;SDS011;53653;52.188;8.602;2023-07-30T09:58:20;20.13;;;7.78;;
66739;SDS011;53653;52.188;8.602;2023-07-30T10:00:46;19.40;;;7.43;;
66739;SDS011;53653;52.188;8.602;2023-07-30T10:03:14;23.08;;;8.50;;
66739;SDS011;53653;52.188;8.602;2023-07-30T10:05:41;22.60;;;7.90;;
66739;SDS011;53653;52.188;8.602;2023-07-30T10:08:11;20.88;;;7.32;;
66739;SDS011;53653;52.188;8.602;2023-07-30T10:10:44;19.60;;;7.32;;
66739;SDS011;53653;52.188;8.602;2023-07-30T10:13:12;21.23;;;7.10;;
66739;SDS011;53653;52.188;8.602;2023-07-30T10:15:38;19.88;;;7.65;;
66739;SDS011;53653;52.188;8.602;2023-07-30T10:18:04;15.32;;;7.30;;
66739;SDS011;53653;52.188;8.602;2023-07-30T10:20:30;21.85;;;7.60;;
66739;SDS011;53653;52.188;8.602;2023-07-30T10:22:57;17.88;;;7.32;;
66739;SDS011;53653;52.188;8.602;2023-07-30T10:25:57;18.13;;;7.63;;
66739;SDS011;53653;52.188;8.602;2023-07-30T10:30:56;19.10;;;8.40;;
66739;SDS011;53653;52.188;8.602;2023-07-30T10:33:24;20.80;;;9.00;;
66739;SDS011;53653;52.188;8.602;2023-07-30T10:36:09;19.83;;;7.85;;
66739;SDS011;53653;52.188;8.602;2023-07-30T10:38:35;18.77;;;8.23;;
66739;SDS011;53653;52.188;8.602;2023-07-30T10:41:05;18.90;;;7.68;;
66739;SDS011;53653;52.188;8.602;2023-07-30T10:46:01;15.60;;;7.87;;
66739;SDS011;53653;52.188;8.602;2023-07-30T10:48:33;19.60;;;8.35;;
66739;SDS011;53653;52.188;8.602;2023-07-30T10:51:09;20.33;;;8.23;;
66739;SDS011;53653;52.188;8.602;2023-07-30T10:53:37;18.47;;;8.37;;
66739;SDS011;53653;52.188;8.602;2023-07-30T10:56:04;23.38;;;9.27;;
66739;SDS011;53653;52.188;8.602;2023-07-30T10:58:32;21.80;;;9.93;;
66739;SDS011;53653;52.188;8.602;2023-07-30T11:01:03;22.70;;;11.07;;
66739;SDS011;53653;52.188;8.602;2023-07-30T11:03:30;20.38;;;10.10;;
66739;SDS011;53653;52.188;8.602;2023-07-30T11:06:02;21.10;;;9.67;;
66739;SDS011;53653;52.188;8.602;2023-07-30T11:08:46;22.85;;;10.63;;
66739;SDS011;53653;52.188;8.602;2023-07-30T11:11:12;17.88;;;9.10;;
66739;SDS011;53653;52.188;8.602;2023-07-30T11:13:39;21.83;;;10.20;;
66739;SDS011;53653;52.188;8.602;2023-07-30T11:16:07;18.85;;;9.18;;
66739;SDS011;53653;52.188;8.602;2023-07-30T11:18:34;20.05;;;9.23;;
66739;SDS011;53653;52.188;8.602;2023-07-30T11:21:07;16.67;;;8.48;;
66739;SDS011;53653;52.188;8.602;2023-07-30T11:23:38;17.75;;;7.60;;
66739;SDS011;53653;52.188;8.602;2023-07-30T11:26:06;12.67;;;5.87;;
66739;SDS011;53653;52.188;8.602;2023-07-30T11:28:33;14.38;;;7.25;;
66739;SDS011;53653;52.188;8.602;2023-07-30T11:31:06;13.65;;;6.68;;
66739;SDS011;53653;52.188;8.602;2023-07-30T11:33:38;15.25;;;8.15;;
66739;SDS011;53653;52.188;8.602;2023-07-30T11:36:14;18.15;;;8.00;;
66739;SDS011;53653;52.188;8.602;2023-07-30T11:38:44;15.60;;;7.63;;
66739;SDS011;53653;52.188;8.602;2023-07-30T11:41:10;14.38;;;7.80;;
66739;SDS011;53653;52.188;8.602;2023-07-30T11:43:41;13.65;;;7.03;;
66739;SDS011;53653;52.188;8.602;2023-07-30T11:46:09;11.10;;;5.95;;
66739;SDS011;53653;52.188;8.602;2023-07-30T11:48:37;10.90;;;5.40;;
66739;SDS011;53653;52.188;8.602;2023-07-30T11:51:03;14.83;;;5.40;;
66739;SDS011;53653;52.188;8.602;2023-07-30T11:53:45;13.27;;;5.80;;
66739;SDS011;53653;52.188;8.602;2023-07-30T11:56:19;11.80;;;5.88;;
66739;SDS011;53653;52.188;8.602;2023-07-30T11:58:47;12.40;;;5.32;;
66739;SDS011;53653;52.188;8.602;2023-07-30T12:01:15;12.50;;;5.23;;
66739;SDS011;53653;52.188;8.602;2023-07-30T12:03:41;11.48;;;5.30;;
66739;SDS011;53653;52.188;8.602;2023-07-30T12:06:08;11.00;;;5.18;;
66739;SDS011;53653;52.188;8.602;2023-07-30T12:08:35;13.55;;;5.43;;
66739;SDS011;53653;52.188;8.602;2023-07-30T12:11:05;11.10;;;4.57;;
66739;SDS011;53653;52.188;8.602;2023-07-30T12:13:32;9.80;;;4.57;;
66739;SDS011;53653;52.188;8.602;2023-07-30T12:15:58;11.63;;;5.30;;
66739;SDS011;53653;52.188;8.602;2023-07-30T12:18:24;10.50;;;5.43;;
66739;SDS011;53653;52.188;8.602;2023-07-30T12:20:51;10.97;;;4.27;;
66739;SDS011;53653;52.188;8.602;2023-07-30T12:23:18;10.93;;;4.43;;
66739;SDS011;53653;52.188;8.602;2023-07-30T12:25:45;9.98;;;4.10;;
66739;SDS011;53653;52.188;8.602;2023-07-30T12:28:11;13.48;;;4.47;;
66739;SDS011;53653;52.188;8.602;2023-07-30T12:30:38;11.30;;;4.60;;
66739;SDS011;53653;52.188;8.602;2023-07-30T12:33:04;8.93;;;4.10;;
66739;SDS011;53653;52.188;8.602;2023-07-30T12:35:31;13.05;;;3.90;;
66739;SDS011;53653;52.188;8.602;2023-07-30T12:37:57;9.27;;;3.63;;
66739;SDS011;53653;52.188;8.602;2023-07-30T12:40:24;9.82;;;3.70;;
66739;SDS011;53653;52.188;8.602;2023-07-30T12:42:50;9.65;;;3.13;;
66739;SDS011;53653;52.188;8.602;2023-07-30T12:45:15;8.60;;;3.03;;
66739;SDS011;53653;52.188;8.602;2023-07-30T12:47:41;9.47;;;3.13;;
66739;SDS011;53653;52.188;8.602;2023-07-30T12:50:07;7.85;;;2.90;;
66739;SDS011;53653;52.188;8.602;2023-07-30T12:52:33;10.38;;;2.50;;
66739;SDS011;53653;52.188;8.602;2023-07-30T12:54:59;7.30;;;2.38;;
66739;SDS011;53653;52.188;8.602;2023-07-30T12:57:29;9.90;;;2.23;;
66739;SDS011;53653;52.188;8.602;2023-07-30T12:59:55;7.03;;;2.25;;
66739;SDS011;53653;52.188;8.602;2023-07-30T13:02:21;10.00;;;2.30;;
66739;SDS011;53653;52.188;8.602;2023-07-30T13:04:46;7.57;;;2.20;;
66739;SDS011;53653;52.188;8.602;2023-07-30T13:07:12;7.90;;;2.00;;
66739;SDS011;53653;52.188;8.602;2023-07-30T13:09:38;6.10;;;2.03;;
66739;SDS011;53653;52.188;8.602;2023-07-30T13:12:03;11.50;;;2.43;;
66739;SDS011;53653;52.188;8.602;2023-07-30T13:14:29;5.70;;;2.03;;
66739;SDS011;53653;52.188;8.602;2023-07-30T13:16:54;8.63;;;2.27;;
66739;SDS011;53653;52.188;8.602;2023-07-30T13:19:20;6.73;;;2.50;;
66739;SDS011;53653;52.188;8.602;2023-07-30T13:21:45;11.63;;;1.97;;
66739;SDS011;53653;52.188;8.602;2023-07-30T13:24:11;8.77;;;2.20;;
66739;SDS011;53653;52.188;8.602;2023-07-30T13:26:36;8.23;;;2.08;;
66739;SDS011;53653;52.188;8.602;2023-07-30T13:29:03;7.27;;;2.07;;
66739;SDS011;53653;52.188;8.602;2023-07-30T13:31:29;7.07;;;2.00;;
66739;SDS011;53653;52.188;8.602;2023-07-30T13:33:55;8.63;;;2.63;;
66739;SDS011;53653;52.188;8.602;2023-07-30T13:36:21;9.47;;;2.30;;
66739;SDS011;53653;52.188;8.602;2023-07-30T13:38:46;8.30;;;2.08;;
66739;SDS011;53653;52.188;8.602;2023-07-30T13:41:12;10.00;;;2.80;;
66739;SDS011;53653;52.188;8.602;2023-07-30T13:43:37;7.33;;;2.60;;
66739;SDS011;53653;52.188;8.602;2023-07-30T13:46:03;7.22;;;2.33;;
66739;SDS011;53653;52.188;8.602;2023-07-30T13:48:28;8.27;;;2.70;;
66739;SDS011;53653;52.188;8.602;2023-07-30T13:50:54;8.00;;;2.73;;
66739;SDS011;53653;52.188;8.602;2023-07-30T13:53:19;9.77;;;3.17;;
66739;SDS011;53653;52.188;8.602;2023-07-30T13:55:45;7.60;;;2.30;;
66739;SDS011;53653;52.188;8.602;2023-07-30T13:58:11;7.32;;;2.70;;
66739;SDS011;53653;52.188;8.602;2023-07-30T14:00:36;10.83;;;2.23;;
66739;SDS011;53653;52.188;8.602;2023-07-30T14:03:02;7.25;;;2.22;;
66739;SDS011;53653;52.188;8.602;2023-07-30T14:05:28;10.23;;;2.43;;
66739;SDS011;53653;52.188;8.602;2023-07-30T14:07:54;7.40;;;2.33;;
66739;SDS011;53653;52.188;8.602;2023-07-30T14:10:22;8.17;;;2.13;;
66739;SDS011;53653;52.188;8.602;2023-07-30T14:12:48;10.73;;;2.47;;
66739;SDS011;53653;52.188;8.602;2023-07-30T14:15:13;6.25;;;1.70;;
66739;SDS011;53653;52.188;8.602;2023-07-30T14:17:40;5.88;;;1.70;;
66739;SDS011;53653;52.188;8.602;2023-07-30T14:20:06;6.67;;;1.80;;
66739;SDS011;53653;52.188;8.602;2023-07-30T14:22:32;6.00;;;1.40;;
66739;SDS011;53653;52.188;8.602;2023-07-30T14:24:58;5.72;;;1.60;;
66739;SDS011;53653;52.188;8.602;2023-07-30T14:27:24;5.68;;;1.30;;
66739;SDS011;53653;52.188;8.602;2023-07-30T14:29:50;8.77;;;1.57;;
66739;SDS011;53653;52.188;8.602;2023-07-30T14:32:17;5.72;;;1.30;;
66739;SDS011;53653;52.188;8.602;2023-07-30T14:34:43;7.38;;;1.50;;
66739;SDS011;53653;52.188;8.602;2023-07-30T14:37:08;8.03;;;1.33;;